createdAt,value
2023-05-04T00:00:08.143Z,91.50
2023-05-04T00:02:35.642Z,91.50
2023-05-04T00:05:06.125Z,91.60
2023-05-04T00:07:33.415Z,91.60
2023-05-04T00:10:01.307Z,91.50
2023-05-04T00:12:28.859Z,91.60
2023-05-04T00:14:58.113Z,91.50
2023-05-04T00:17:29.889Z,91.50
2023-05-04T00:19:59.286Z,91.50
2023-05-04T00:22:26.452Z,91.50
2023-05-04T00:24:55.870Z,91.50
2023-05-04T00:27:25.681Z,91.50
2023-05-04T00:29:57.577Z,91.50
2023-05-04T00:32:27.313Z,91.50
2023-05-04T00:35:05.191Z,91.50
2023-05-04T00:37:34.350Z,91.60
2023-05-04T00:40:06.946Z,91.60
2023-05-04T00:42:34.412Z,91.60
2023-05-04T00:45:03.685Z,91.60
2023-05-04T00:47:32.966Z,91.70
2023-05-04T00:50:03.154Z,91.70
2023-05-04T00:52:34.060Z,91.70
2023-05-04T00:55:06.429Z,91.60
2023-05-04T00:57:33.816Z,91.70
2023-05-04T01:00:02.340Z,91.70
2023-05-04T01:02:34.804Z,91.70
2023-05-04T01:05:02.786Z,91.70
2023-05-04T01:07:39.429Z,91.60
2023-05-04T01:10:20.946Z,91.70
2023-05-04T01:13:05.343Z,91.70
2023-05-04T01:15:33.364Z,91.80
2023-05-04T01:18:01.065Z,91.70
2023-05-04T01:20:28.667Z,91.80
2023-05-04T01:22:58.302Z,91.70
2023-05-04T01:25:32.144Z,91.70
2023-05-04T01:28:12.758Z,92.00
2023-05-04T01:30:48.743Z,91.90
2023-05-04T01:33:17.155Z,91.80
2023-05-04T01:35:45.628Z,91.70
2023-05-04T01:38:12.887Z,91.70
2023-05-04T01:40:42.426Z,91.70
2023-05-04T01:43:14.528Z,91.70
2023-05-04T01:45:44.138Z,91.70
2023-05-04T01:48:11.407Z,91.80
2023-05-04T01:50:38.565Z,91.70
2023-05-04T01:53:10.368Z,91.80
2023-05-04T01:55:38.191Z,92.10
2023-05-04T01:58:05.403Z,91.80
2023-05-04T02:00:33.113Z,91.80
2023-05-04T02:03:00.328Z,91.80
2023-05-04T02:05:27.552Z,91.80
2023-05-04T02:07:54.985Z,91.80
2023-05-04T02:10:22.061Z,91.80
2023-05-04T02:12:52.308Z,91.80
2023-05-04T02:15:19.524Z,91.80
2023-05-04T02:17:46.669Z,91.90
2023-05-04T02:20:18.754Z,91.80
2023-05-04T02:22:46.241Z,91.80
2023-05-04T02:25:15.959Z,91.80
2023-05-04T02:27:45.365Z,91.90
2023-05-04T02:30:15.613Z,91.90
2023-05-04T02:32:48.217Z,91.90
2023-05-04T02:35:19.937Z,91.90
2023-05-04T02:37:49.421Z,92.00
2023-05-04T02:40:16.680Z,91.80
2023-05-04T02:42:48.584Z,91.80
2023-05-04T02:45:22.855Z,91.90
2023-05-04T02:47:52.570Z,91.90
2023-05-04T02:50:22.258Z,91.90
2023-05-04T02:52:51.971Z,91.90
2023-05-04T02:55:19.277Z,91.90
2023-05-04T02:57:46.481Z,92.00
2023-05-04T03:00:14.005Z,92.00
2023-05-04T03:02:41.218Z,91.90
2023-05-04T03:05:11.058Z,91.90
2023-05-04T03:07:38.355Z,91.90
2023-05-04T03:10:09.566Z,92.00
2023-05-04T03:12:44.975Z,92.00
2023-05-04T03:15:17.148Z,92.00
2023-05-04T03:17:46.813Z,92.10
2023-05-04T03:20:18.618Z,92.00
2023-05-04T03:22:45.695Z,92.10
2023-05-04T03:25:12.810Z,92.00
2023-05-04T03:27:42.521Z,92.40
2023-05-04T03:30:12.893Z,92.10
2023-05-04T03:32:40.876Z,92.10
2023-05-04T03:35:10.525Z,92.10
2023-05-04T03:37:40.202Z,92.10
2023-05-04T03:40:08.104Z,92.10
2023-05-04T03:42:38.173Z,92.10
2023-05-04T03:45:06.160Z,92.00
2023-05-04T03:47:38.133Z,92.00
2023-05-04T03:50:06.011Z,92.50
2023-05-04T03:52:33.431Z,92.20
2023-05-04T03:55:03.101Z,92.20
2023-05-04T03:57:32.633Z,92.20
2023-05-04T03:59:59.725Z,92.20
2023-05-04T04:02:27.130Z,92.20
2023-05-04T04:04:54.427Z,92.20
2023-05-04T04:07:23.674Z,92.20
2023-05-04T04:09:53.224Z,92.30
2023-05-04T04:12:22.464Z,92.20
2023-05-04T04:14:51.904Z,92.20
2023-05-04T04:17:21.547Z,92.20
2023-05-04T04:19:48.771Z,92.20
2023-05-04T04:22:18.488Z,92.20
2023-05-04T04:24:48.185Z,92.30
2023-05-04T04:27:15.417Z,92.20
2023-05-04T04:29:43.008Z,92.40
2023-05-04T04:32:10.591Z,92.30
2023-05-04T04:34:40.733Z,92.30
2023-05-04T04:37:07.852Z,92.40
2023-05-04T04:39:35.025Z,92.40
2023-05-04T04:42:04.316Z,92.40
2023-05-04T04:44:33.888Z,92.40
2023-05-04T04:47:06.721Z,92.40
2023-05-04T04:49:33.963Z,92.40
2023-05-04T04:52:05.989Z,92.80
2023-05-04T04:54:35.636Z,92.50
2023-05-04T04:57:07.424Z,92.50
2023-05-04T04:59:39.306Z,92.50
2023-05-04T05:02:06.580Z,92.40
2023-05-04T05:04:35.886Z,92.50
2023-05-04T05:07:03.103Z,92.60
2023-05-04T05:09:32.741Z,92.60
2023-05-04T05:12:02.495Z,92.60
2023-05-04T05:14:31.674Z,92.90
2023-05-04T05:17:04.215Z,92.80
2023-05-04T05:19:36.990Z,92.70
2023-05-04T05:22:06.810Z,92.80
2023-05-04T05:24:36.125Z,92.90
2023-05-04T05:27:05.459Z,92.80
2023-05-04T05:29:35.778Z,92.90
2023-05-04T05:32:05.657Z,93.00
2023-05-04T05:34:38.908Z,93.00
2023-05-04T05:37:06.157Z,93.10
2023-05-04T05:39:37.808Z,93.10
2023-05-04T05:42:06.003Z,93.10
2023-05-04T05:44:37.607Z,93.20
2023-05-04T05:47:05.869Z,93.20
2023-05-04T05:49:37.517Z,93.20
2023-05-04T05:52:07.358Z,93.20
2023-05-04T05:54:41.374Z,93.20
2023-05-04T05:57:13.191Z,93.20
2023-05-04T05:59:42.147Z,93.40
2023-05-04T06:02:09.341Z,93.30
2023-05-04T06:04:36.962Z,93.20
2023-05-04T06:07:06.577Z,93.40
2023-05-04T06:09:36.617Z,93.40
2023-05-04T06:12:12.207Z,93.30
2023-05-04T06:14:43.914Z,93.40
2023-05-04T06:17:11.616Z,93.50
2023-05-04T06:19:39.284Z,93.70
2023-05-04T06:22:08.912Z,93.50
2023-05-04T06:24:40.551Z,93.90
2023-05-04T06:27:07.688Z,93.60
2023-05-04T06:29:34.863Z,93.70
2023-05-04T06:32:04.847Z,93.80
2023-05-04T06:34:34.385Z,93.90
2023-05-04T06:37:01.565Z,93.90
2023-05-04T06:39:31.516Z,94.00
2023-05-04T06:42:02.465Z,94.00
2023-05-04T06:44:34.120Z,94.10
2023-05-04T06:47:07.532Z,94.10
2023-05-04T06:49:35.226Z,94.20
2023-05-04T06:52:02.828Z,94.30
2023-05-04T06:54:30.152Z,94.40
2023-05-04T06:56:59.571Z,94.40
2023-05-04T06:59:29.211Z,94.50
2023-05-04T07:01:56.411Z,94.60
2023-05-04T07:04:26.632Z,94.60
2023-05-04T07:06:53.795Z,94.60
2023-05-04T07:09:23.879Z,94.60
2023-05-04T07:11:53.347Z,94.70
2023-05-04T07:14:21.844Z,94.70
2023-05-04T07:16:49.038Z,94.80
2023-05-04T07:19:18.754Z,94.80
2023-05-04T07:21:50.766Z,94.90
2023-05-04T07:24:20.083Z,95.00
2023-05-04T07:26:47.242Z,95.00
2023-05-04T07:29:16.840Z,95.10
2023-05-04T07:31:46.597Z,95.10
2023-05-04T07:34:13.919Z,95.20
2023-05-04T07:36:43.195Z,95.30
2023-05-04T07:39:12.879Z,95.30
2023-05-04T07:41:48.838Z,95.30
2023-05-04T07:44:19.061Z,95.40
2023-05-04T07:46:46.182Z,95.40
2023-05-04T07:49:15.929Z,95.40
2023-05-04T07:51:47.763Z,95.50
2023-05-04T07:54:17.852Z,95.50
2023-05-04T07:56:45.194Z,95.50
2023-05-04T07:59:18.065Z,95.60
2023-05-04T08:01:45.286Z,95.60
2023-05-04T08:04:14.732Z,95.60
2023-05-04T08:06:44.719Z,95.70
2023-05-04T08:09:15.111Z,95.70
2023-05-04T08:11:42.844Z,95.70
2023-05-04T08:14:12.592Z,95.80
2023-05-04T08:16:44.643Z,95.70
2023-05-04T08:19:14.418Z,95.80
2023-05-04T08:21:41.612Z,95.80
2023-05-04T08:24:09.035Z,95.90
2023-05-04T08:26:39.660Z,95.90
2023-05-04T08:29:10.830Z,95.90
2023-05-04T08:31:40.732Z,95.90
2023-05-04T08:34:07.915Z,95.90
2023-05-04T08:36:37.624Z,96.00
2023-05-04T08:39:04.874Z,96.00
2023-05-04T08:41:32.652Z,96.00
2023-05-04T08:44:09.809Z,96.10
2023-05-04T08:46:42.290Z,96.10
2023-05-04T08:49:11.886Z,96.00
2023-05-04T08:51:43.622Z,96.00
2023-05-04T08:54:13.568Z,96.10
2023-05-04T08:56:41.337Z,96.20
2023-05-04T08:59:20.881Z,96.00
2023-05-04T09:01:59.872Z,96.10
2023-05-04T09:04:30.712Z,96.20
2023-05-04T09:07:05.145Z,96.20
2023-05-04T09:09:37.200Z,96.40
2023-05-04T09:12:04.742Z,96.40
2023-05-04T09:14:36.444Z,96.50
2023-05-04T09:17:26.066Z,96.50
2023-05-04T09:20:03.637Z,96.50
2023-05-04T09:22:35.594Z,96.50
2023-05-04T09:25:11.155Z,96.60
2023-05-04T09:27:42.731Z,96.60
2023-05-04T09:30:12.581Z,96.70
2023-05-04T09:32:49.667Z,96.70
2023-05-04T09:35:35.262Z,96.80
2023-05-04T09:38:02.681Z,96.80
2023-05-04T09:40:46.643Z,96.70
2023-05-04T09:43:18.903Z,96.80
2023-05-04T09:45:51.556Z,96.80
2023-05-04T09:48:25.763Z,96.70
2023-05-04T09:51:00.533Z,96.50
2023-05-04T09:53:33.340Z,96.50
2023-05-04T09:56:17.994Z,96.90
2023-05-04T09:58:49.200Z,96.70
2023-05-04T10:01:17.276Z,96.70
2023-05-04T10:03:47.729Z,96.60
2023-05-04T10:06:17.737Z,96.60
2023-05-04T10:08:45.578Z,96.80
2023-05-04T10:11:16.144Z,96.80
2023-05-04T10:13:48.235Z,96.60
2023-05-04T10:16:45.502Z,97.00
2023-05-04T10:19:30.511Z,97.00
2023-05-04T10:22:12.161Z,97.10
2023-05-04T10:25:03.753Z,97.10
2023-05-04T10:27:40.147Z,96.90
2023-05-04T10:30:15.452Z,97.10
2023-05-04T10:32:42.715Z,97.10
2023-05-04T10:35:14.174Z,97.10
2023-05-04T10:37:57.196Z,97.10
2023-05-04T10:40:36.689Z,97.30
2023-05-04T10:43:04.755Z,97.30
2023-05-04T10:45:37.876Z,97.40
2023-05-04T10:48:05.930Z,97.40
2023-05-04T10:50:43.752Z,97.40
2023-05-04T10:53:16.688Z,97.50
2023-05-04T10:55:50.802Z,97.50
2023-05-04T10:58:29.020Z,97.60
2023-05-04T11:00:58.689Z,98.00
2023-05-04T11:03:41.437Z,97.70
2023-05-04T11:06:24.966Z,97.80
2023-05-04T11:09:02.810Z,97.80
2023-05-04T11:11:38.976Z,97.40
2023-05-04T11:14:06.258Z,97.70
2023-05-04T11:16:33.451Z,97.80
2023-05-04T11:19:09.741Z,97.60
2023-05-04T11:21:40.481Z,97.60
2023-05-04T11:24:10.013Z,97.60
2023-05-04T11:26:49.678Z,97.80
2023-05-04T11:29:16.963Z,98.00
2023-05-04T11:31:56.849Z,98.00
2023-05-04T11:34:24.158Z,97.80
2023-05-04T11:36:58.695Z,98.10
2023-05-04T11:39:33.487Z,97.70
2023-05-04T11:42:05.097Z,97.80
2023-05-04T11:44:41.050Z,98.00
2023-05-04T11:47:08.321Z,98.00
2023-05-04T11:49:37.988Z,98.20
2023-05-04T11:52:13.427Z,98.20
2023-05-04T11:54:42.718Z,98.10
2023-05-04T11:57:10.218Z,98.20
2023-05-04T11:59:53.910Z,98.30
2023-05-04T12:02:23.428Z,98.30
2023-05-04T12:04:50.754Z,98.40
2023-05-04T12:07:17.975Z,98.50
2023-05-04T12:09:50.918Z,98.50
2023-05-04T12:12:21.612Z,97.60
2023-05-04T12:14:58.269Z,98.20
2023-05-04T12:17:30.517Z,97.80
2023-05-04T12:19:57.848Z,98.00
2023-05-04T12:22:33.057Z,98.30
2023-05-04T12:25:00.431Z,98.10
2023-05-04T12:27:32.451Z,98.20
2023-05-04T12:29:59.522Z,98.40
2023-05-04T12:32:28.960Z,98.50
2023-05-04T12:34:58.535Z,98.60
2023-05-04T12:37:27.944Z,98.60
2023-05-04T12:39:57.559Z,98.30
2023-05-04T12:42:27.396Z,98.50
2023-05-04T12:44:54.522Z,98.60
2023-05-04T12:47:24.790Z,98.60
2023-05-04T12:49:52.237Z,98.30
2023-05-04T12:52:19.372Z,98.30
2023-05-04T12:54:48.725Z,98.00
2023-05-04T12:57:15.963Z,98.50
2023-05-04T12:59:45.697Z,98.60
2023-05-04T13:02:18.043Z,98.20
2023-05-04T13:04:45.219Z,98.50
2023-05-04T13:07:17.266Z,98.60
2023-05-04T13:09:44.432Z,98.50
2023-05-04T13:12:13.784Z,98.60
2023-05-04T13:14:43.726Z,98.60
2023-05-04T13:17:10.815Z,98.40
2023-05-04T13:19:38.035Z,98.40
2023-05-04T13:22:05.222Z,98.50
2023-05-04T13:24:37.241Z,98.40
2023-05-04T13:27:06.932Z,97.60
2023-05-04T13:29:34.408Z,98.30
2023-05-04T13:32:01.608Z,98.60
2023-05-04T13:34:35.652Z,98.50
2023-05-04T13:37:05.198Z,98.10
2023-05-04T13:39:44.339Z,98.40
2023-05-04T13:42:12.576Z,98.40
2023-05-04T13:44:45.517Z,98.40
2023-05-04T13:47:16.496Z,98.40
2023-05-04T13:49:43.701Z,98.50
2023-05-04T13:52:13.562Z,98.30
2023-05-04T13:54:43.049Z,98.30
2023-05-04T13:57:10.240Z,98.40
2023-05-04T13:59:48.767Z,98.30
2023-05-04T14:02:25.992Z,97.60
2023-05-04T14:04:55.774Z,97.60
2023-05-04T14:07:25.120Z,97.80
2023-05-04T14:09:55.540Z,98.00
2023-05-04T14:12:22.865Z,98.00
2023-05-04T14:14:50.838Z,97.70
2023-05-04T14:17:20.306Z,97.80
2023-05-04T14:19:47.508Z,97.80
2023-05-04T14:22:16.996Z,97.50
2023-05-04T14:24:44.462Z,97.80
2023-05-04T14:27:11.725Z,97.90
2023-05-04T14:29:41.373Z,98.10
2023-05-04T14:32:13.346Z,98.10
2023-05-04T14:34:43.009Z,98.10
2023-05-04T14:37:12.270Z,97.70
2023-05-04T14:39:39.601Z,98.10
2023-05-04T14:42:11.558Z,98.10
2023-05-04T14:44:38.686Z,97.50
2023-05-04T14:47:08.019Z,97.60
2023-05-04T14:49:43.066Z,98.10
2023-05-04T14:52:10.614Z,98.00
2023-05-04T14:54:40.175Z,98.10
2023-05-04T14:57:10.577Z,98.40
2023-05-04T14:59:38.700Z,98.30
2023-05-04T15:02:08.229Z,98.20
2023-05-04T15:04:36.474Z,98.40
2023-05-04T15:07:08.638Z,98.20
2023-05-04T15:09:35.853Z,98.60
2023-05-04T15:12:03.738Z,98.50
2023-05-04T15:14:35.389Z,98.40
2023-05-04T15:17:02.647Z,98.30
2023-05-04T15:19:30.095Z,98.50
2023-05-04T15:21:57.244Z,98.70
2023-05-04T15:24:24.449Z,98.80
2023-05-04T15:26:58.531Z,98.50
2023-05-04T15:29:26.056Z,98.60
2023-05-04T15:31:58.142Z,98.50
2023-05-04T15:34:27.563Z,98.50
2023-05-04T15:36:59.380Z,98.60
2023-05-04T15:39:29.127Z,98.60
2023-05-04T15:41:58.435Z,98.60
2023-05-04T15:44:27.691Z,98.40
2023-05-04T15:46:58.164Z,98.60
2023-05-04T15:49:27.532Z,98.60
2023-05-04T15:51:57.206Z,98.50
2023-05-04T15:54:24.350Z,98.40
2023-05-04T15:56:53.665Z,98.30
2023-05-04T15:59:23.129Z,97.50
2023-05-04T16:01:53.043Z,98.10
2023-05-04T16:04:24.847Z,97.90
2023-05-04T16:06:52.069Z,97.80
2023-05-04T16:09:20.736Z,97.90
2023-05-04T16:11:50.026Z,97.90
2023-05-04T16:14:17.236Z,97.90
2023-05-04T16:16:46.663Z,97.90
2023-05-04T16:19:13.816Z,97.80
2023-05-04T16:21:40.972Z,97.30
2023-05-04T16:24:10.059Z,97.50
2023-05-04T16:26:39.577Z,97.90
2023-05-04T16:29:14.148Z,97.50
2023-05-04T16:31:41.660Z,97.20
2023-05-04T16:34:11.082Z,97.30
2023-05-04T16:36:38.177Z,97.30
2023-05-04T16:39:05.723Z,97.40
2023-05-04T16:41:33.008Z,97.30
2023-05-04T16:44:02.778Z,97.20
2023-05-04T16:46:30.200Z,97.20
2023-05-04T16:48:57.392Z,97.20
2023-05-04T16:51:28.775Z,97.20
2023-05-04T16:53:58.559Z,97.20
2023-05-04T16:56:28.065Z,97.10
2023-05-04T16:58:55.238Z,97.30
2023-05-04T17:01:25.050Z,97.10
2023-05-04T17:03:54.603Z,97.10
2023-05-04T17:06:21.886Z,96.90
2023-05-04T17:08:49.153Z,96.90
2023-05-04T17:11:18.651Z,96.90
2023-05-04T17:13:45.809Z,96.80
2023-05-04T17:16:12.976Z,96.80
2023-05-04T17:18:42.562Z,96.80
2023-05-04T17:21:09.722Z,96.70
2023-05-04T17:23:39.198Z,96.70
2023-05-04T17:26:13.571Z,96.70
2023-05-04T17:28:40.736Z,96.60
2023-05-04T17:31:12.929Z,96.70
2023-05-04T17:33:40.090Z,96.50
2023-05-04T17:36:07.742Z,96.50
2023-05-04T17:38:38.128Z,96.50
2023-05-04T17:41:10.398Z,96.50
2023-05-04T17:43:39.846Z,96.50
2023-05-04T17:46:11.343Z,96.50
2023-05-04T17:48:40.967Z,96.50
2023-05-04T17:51:13.270Z,96.40
2023-05-04T17:53:42.639Z,96.40
2023-05-04T17:56:20.333Z,96.40
2023-05-04T17:58:47.535Z,96.30
2023-05-04T18:01:17.446Z,96.50
2023-05-04T18:03:47.247Z,96.30
2023-05-04T18:06:16.826Z,96.30
2023-05-04T18:08:46.507Z,96.30
2023-05-04T18:11:13.683Z,96.30
2023-05-04T18:13:40.982Z,96.40
2023-05-04T18:16:10.835Z,96.40
2023-05-04T18:18:42.565Z,96.50
2023-05-04T18:21:11.762Z,96.40
2023-05-04T18:23:38.997Z,96.50
2023-05-04T18:26:28.266Z,96.50
2023-05-04T18:28:59.205Z,96.40
2023-05-04T18:31:31.671Z,96.40
2023-05-04T18:34:03.773Z,96.40
2023-05-04T18:36:33.451Z,96.30
2023-05-04T18:39:00.702Z,96.30
2023-05-04T18:41:32.881Z,96.40
2023-05-04T18:44:01.085Z,96.40
2023-05-04T18:46:30.795Z,96.30
2023-05-04T18:49:00.002Z,96.30
2023-05-04T18:51:27.929Z,96.30
2023-05-04T18:53:55.064Z,96.20
2023-05-04T18:56:24.366Z,96.20
2023-05-04T18:58:52.156Z,96.20
2023-05-04T19:01:22.062Z,96.20
2023-05-04T19:03:51.488Z,96.20
2023-05-04T19:06:21.213Z,96.20
2023-05-04T19:08:55.498Z,96.20
2023-05-04T19:11:25.646Z,96.10
2023-05-04T19:13:55.550Z,96.10
2023-05-04T19:16:22.758Z,96.00
2023-05-04T19:18:57.285Z,96.00
2023-05-04T19:21:24.449Z,96.00
2023-05-04T19:23:59.155Z,96.00
2023-05-04T19:26:28.518Z,96.00
2023-05-04T19:28:55.740Z,96.00
2023-05-04T19:31:29.971Z,96.00
2023-05-04T19:33:59.765Z,96.00
2023-05-04T19:36:32.523Z,96.00
2023-05-04T19:38:59.674Z,96.10
2023-05-04T19:41:29.121Z,96.00
2023-05-04T19:43:56.286Z,96.00
2023-05-04T19:46:23.445Z,96.10
2023-05-04T19:48:57.621Z,96.00
2023-05-04T19:51:24.792Z,96.00
2023-05-04T19:53:52.173Z,96.00
2023-05-04T19:56:19.289Z,96.00
2023-05-04T19:58:51.168Z,96.10
2023-05-04T20:01:18.623Z,96.00
2023-05-04T20:03:50.343Z,96.10
2023-05-04T20:06:17.485Z,96.10
2023-05-04T20:08:45.163Z,96.10
2023-05-04T20:11:13.172Z,96.50
2023-05-04T20:13:42.830Z,96.10
2023-05-04T20:16:10.073Z,96.20
2023-05-04T20:18:37.273Z,96.20
2023-05-04T20:21:04.551Z,96.20
2023-05-04T20:23:31.666Z,96.30
2023-05-04T20:25:58.886Z,96.30
2023-05-04T20:28:26.112Z,96.30
2023-05-04T20:30:55.812Z,96.30
2023-05-04T20:33:25.152Z,96.40
2023-05-04T20:35:52.273Z,96.40
2023-05-04T20:38:19.595Z,96.50
2023-05-04T20:40:46.901Z,96.50
2023-05-04T20:43:18.456Z,96.50
2023-05-04T20:45:45.640Z,96.50
2023-05-04T20:48:15.210Z,96.50
2023-05-04T20:50:42.351Z,96.50
2023-05-04T20:53:12.623Z,96.50
2023-05-04T20:55:43.550Z,96.50
2023-05-04T20:58:14.722Z,96.50
2023-05-04T21:00:49.099Z,96.60
2023-05-04T21:03:20.976Z,96.60
2023-05-04T21:05:48.763Z,96.60
2023-05-04T21:08:17.972Z,96.60
2023-05-04T21:10:49.752Z,96.60
2023-05-04T21:13:16.957Z,96.70
2023-05-04T21:15:48.994Z,96.70
2023-05-04T21:18:16.159Z,96.70
2023-05-04T21:20:43.294Z,96.80
2023-05-04T21:23:15.412Z,96.80
2023-05-04T21:25:47.511Z,96.80
2023-05-04T21:28:18.957Z,96.80
2023-05-04T21:30:48.670Z,96.90
2023-05-04T21:33:15.796Z,96.90
2023-05-04T21:35:45.196Z,96.90
2023-05-04T21:38:14.902Z,96.90
2023-05-04T21:40:42.079Z,96.90
2023-05-04T21:43:16.675Z,97.00
2023-05-04T21:45:43.907Z,96.90
2023-05-04T21:48:11.281Z,97.10
2023-05-04T21:50:40.924Z,97.60
2023-05-04T21:53:10.097Z,97.90
2023-05-04T21:55:42.075Z,98.40
2023-05-04T21:58:11.541Z,98.40
2023-05-04T22:00:43.469Z,98.50
2023-05-04T22:03:12.830Z,98.50
2023-05-04T22:05:44.371Z,98.40
2023-05-04T22:08:13.986Z,98.50
2023-05-04T22:10:41.590Z,98.60
2023-05-04T22:13:08.742Z,98.90
2023-05-04T22:15:49.421Z,98.90
2023-05-04T22:18:22.515Z,99.00
2023-05-04T22:20:52.186Z,99.10
2023-05-04T22:23:21.817Z,99.00
2023-05-04T22:25:49.141Z,99.10
2023-05-04T22:28:21.061Z,99.10
2023-05-04T22:30:50.705Z,99.10
2023-05-04T22:33:17.894Z,99.20
2023-05-04T22:35:47.051Z,99.20
2023-05-04T22:38:16.343Z,99.10
2023-05-04T22:40:43.692Z,99.20
2023-05-04T22:43:11.104Z,99.30
2023-05-04T22:45:41.115Z,99.40
2023-05-04T22:48:08.642Z,99.40
2023-05-04T22:50:40.663Z,99.50
2023-05-04T22:53:10.419Z,99.70
2023-05-04T22:55:39.801Z,99.60
2023-05-04T22:58:09.156Z,99.70
2023-05-04T23:00:38.774Z,99.80
2023-05-04T23:03:06.489Z,99.90
2023-05-04T23:05:36.443Z,99.90
2023-05-04T23:08:03.856Z,99.90
2023-05-04T23:10:31.010Z,99.80
2023-05-04T23:13:07.716Z,99.80
2023-05-04T23:15:37.387Z,99.90
2023-05-04T23:18:04.955Z,99.80
2023-05-04T23:20:36.481Z,99.80
2023-05-04T23:23:03.660Z,99.80
2023-05-04T23:25:30.896Z,99.90
2023-05-04T23:28:00.357Z,99.90
2023-05-04T23:30:27.460Z,99.80
2023-05-04T23:32:57.786Z,99.80
2023-05-04T23:35:32.701Z,99.70
2023-05-04T23:38:02.650Z,99.60
2023-05-04T23:40:30.182Z,99.40
2023-05-04T23:42:57.551Z,99.50
2023-05-04T23:45:24.742Z,99.20
2023-05-04T23:47:56.594Z,99.00
2023-05-04T23:50:26.804Z,98.90
2023-05-04T23:52:56.282Z,99.00
2023-05-04T23:55:27.963Z,98.90
2023-05-04T23:57:57.603Z,98.90
